createdAt,value
2022-08-03T00:01:08.801Z,101141.16
2022-08-03T00:06:22.442Z,101147.86
2022-08-03T00:11:38.106Z,101149.79
2022-08-03T00:16:59.218Z,101153.88
2022-08-03T00:22:17.951Z,101151.56
2022-08-03T00:27:35.327Z,101149.48
2022-08-03T00:32:53.538Z,101147.67
2022-08-03T00:38:13.123Z,101149.99
2022-08-03T00:43:21.160Z,101148.50
2022-08-03T00:48:36.647Z,101149.03
2022-08-03T00:53:53.121Z,101143.46
2022-08-03T00:59:01.952Z,101142.86
2022-08-03T01:04:16.630Z,101135.34
2022-08-03T01:09:46.262Z,101133.81
2022-08-03T01:15:17.275Z,101126.89
2022-08-03T01:20:24.131Z,101122.48
2022-08-03T01:25:58.553Z,101122.05
2022-08-03T01:31:27.453Z,101120.61
2022-08-03T01:36:46.364Z,101114.17
2022-08-03T01:41:55.192Z,101108.02
2022-08-03T01:47:03.063Z,101105.96
2022-08-03T01:52:09.404Z,101109.69
2022-08-03T01:57:18.863Z,101110.23
2022-08-03T02:02:36.808Z,101109.27
2022-08-03T02:07:47.129Z,101108.23
2022-08-03T02:13:14.315Z,101111.23
2022-08-03T02:18:26.032Z,101103.48
2022-08-03T02:23:32.654Z,101098.52
2022-08-03T02:28:50.998Z,101099.13
2022-08-03T02:33:58.962Z,101093.98
2022-08-03T02:39:05.885Z,101094.48
2022-08-03T02:44:21.465Z,101094.34
2022-08-03T02:49:40.729Z,101085.24
2022-08-03T02:55:16.560Z,101085.77
2022-08-03T03:00:27.836Z,101094.80
2022-08-03T03:05:51.745Z,101094.83
2022-08-03T03:11:04.239Z,101095.90
2022-08-03T03:16:14.690Z,101093.77
2022-08-03T03:21:25.165Z,101091.17
2022-08-03T03:26:51.864Z,101090.56
2022-08-03T03:32:18.042Z,101092.08
2022-08-03T03:37:23.944Z,101093.15
2022-08-03T03:42:29.820Z,101094.73
2022-08-03T03:47:38.247Z,101104.66
2022-08-03T03:52:44.383Z,101100.20
2022-08-03T03:57:50.245Z,101100.85
2022-08-03T04:02:55.884Z,101108.41
2022-08-03T04:08:20.485Z,101112.41
2022-08-03T04:13:28.098Z,101119.64
2022-08-03T04:18:39.903Z,101121.64
2022-08-03T04:23:47.388Z,101120.33
2022-08-03T04:29:04.590Z,101124.87
2022-08-03T04:34:30.663Z,101126.80
2022-08-03T04:39:56.942Z,101130.11
2022-08-03T04:45:24.185Z,101135.17
2022-08-03T04:50:30.103Z,101139.71
2022-08-03T04:56:08.602Z,101139.02
2022-08-03T05:01:14.237Z,101138.55
2022-08-03T05:06:20.295Z,101133.52
2022-08-03T05:11:36.505Z,101134.77
2022-08-03T05:16:45.567Z,101136.19
2022-08-03T05:21:51.293Z,101138.86
2022-08-03T05:27:09.428Z,101141.67
2022-08-03T05:32:16.306Z,101141.49
2022-08-03T05:37:34.757Z,101138.79
2022-08-03T05:42:43.881Z,101140.80
2022-08-03T05:47:52.489Z,101142.95
2022-08-03T05:52:59.148Z,101145.09
2022-08-03T05:58:05.770Z,101152.56
2022-08-03T06:03:31.621Z,101158.39
2022-08-03T06:08:37.511Z,101163.66
2022-08-03T06:13:46.418Z,101158.77
2022-08-03T06:18:52.249Z,101154.83
2022-08-03T06:24:18.396Z,101157.30
2022-08-03T06:29:43.014Z,101156.06
2022-08-03T06:34:52.153Z,101157.02
2022-08-03T06:40:01.646Z,101154.42
2022-08-03T06:45:11.502Z,101160.61
2022-08-03T06:50:19.023Z,101163.45
2022-08-03T06:55:29.888Z,101165.88
2022-08-03T07:00:35.498Z,101166.92
2022-08-03T07:05:53.790Z,101175.23
2022-08-03T07:11:18.913Z,101176.53
2022-08-03T07:19:03.717Z,101166.73
2022-08-03T07:24:14.688Z,101169.80
2022-08-03T07:29:24.560Z,101168.29
2022-08-03T07:34:32.116Z,101169.73
2022-08-03T07:39:39.366Z,101170.36
2022-08-03T07:44:46.799Z,101170.39
2022-08-03T07:49:55.387Z,101168.45
2022-08-03T07:55:08.638Z,101167.30
2022-08-03T08:00:20.968Z,101171.81
2022-08-03T08:05:29.750Z,101175.77
2022-08-03T08:10:40.216Z,101177.09
2022-08-03T08:15:47.743Z,101170.23
2022-08-03T08:20:55.505Z,101171.94
2022-08-03T08:26:03.990Z,101170.72
2022-08-03T08:31:11.760Z,101171.68
2022-08-03T08:36:19.419Z,101171.90
2022-08-03T08:41:32.113Z,101168.41
2022-08-03T08:46:41.707Z,101172.92
2022-08-03T08:52:00.797Z,101174.86
2022-08-03T08:57:33.533Z,101179.36
2022-08-03T09:02:46.150Z,101180.16
2022-08-03T09:08:07.265Z,101183.72
2022-08-03T09:13:14.790Z,101182.67
2022-08-03T09:18:32.843Z,101179.31
2022-08-03T09:24:02.325Z,101183.07
2022-08-03T09:29:15.205Z,101179.04
2022-08-03T09:34:34.370Z,101174.56
2022-08-03T09:39:53.980Z,101175.65
2022-08-03T09:45:04.458Z,101168.13
2022-08-03T09:50:13.593Z,101166.26
2022-08-03T09:56:34.146Z,101163.20
2022-08-03T10:01:01.382Z,101161.08
2022-08-03T10:06:20.588Z,101163.19
2022-08-03T10:11:40.873Z,101156.56
2022-08-03T10:17:02.721Z,101150.58
2022-08-03T10:22:29.095Z,101146.25
2022-08-03T10:27:39.174Z,101146.30
2022-08-03T10:32:54.793Z,101143.30
2022-08-03T10:38:05.221Z,101139.84
2022-08-03T10:43:24.422Z,101142.79
2022-08-03T10:48:33.217Z,101137.33
2022-08-03T10:53:55.207Z,101146.04
2022-08-03T10:59:03.901Z,101143.45
2022-08-03T11:04:24.416Z,101138.95
2022-08-03T11:09:44.047Z,101133.77
2022-08-03T11:14:54.508Z,101127.02
2022-08-03T11:20:02.061Z,101127.84
2022-08-03T11:25:54.914Z,101122.69
2022-08-03T11:30:44.347Z,101130.30
2022-08-03T11:36:03.648Z,101121.24
2022-08-03T11:41:45.084Z,101124.59
2022-08-03T11:46:54.368Z,101123.27
2022-08-03T11:52:27.038Z,101119.94
2022-08-03T11:59:12.972Z,101111.16
2022-08-03T12:03:13.915Z,101111.19
2022-08-03T12:08:33.160Z,101107.67
2022-08-03T12:14:28.888Z,101109.41
2022-08-03T12:19:14.446Z,101097.21
2022-08-03T12:24:28.538Z,101099.88
2022-08-03T12:29:39.393Z,101099.77
2022-08-03T12:34:50.671Z,101096.34
2022-08-03T12:40:09.615Z,101092.39
2022-08-03T12:45:26.565Z,101089.50
2022-08-03T12:50:36.140Z,101081.58
2022-08-03T12:55:57.868Z,101080.48
2022-08-03T13:01:15.782Z,101084.32
2022-08-03T13:06:27.462Z,101084.08
2022-08-03T13:11:57.402Z,101078.74
2022-08-03T13:17:10.616Z,101080.30
2022-08-03T13:22:21.444Z,101075.68
2022-08-03T13:28:04.664Z,101071.76
2022-08-03T13:33:14.939Z,101068.71
2022-08-03T13:38:43.288Z,101064.17
2022-08-03T13:44:12.050Z,101061.95
2022-08-03T13:49:24.034Z,101055.38
2022-08-03T13:54:35.588Z,101045.95
2022-08-03T13:59:51.677Z,101047.38
2022-08-03T14:05:02.476Z,101045.36
2022-08-03T14:10:12.408Z,101041.00
2022-08-03T14:15:41.127Z,101042.21
2022-08-03T14:20:53.064Z,101040.36
2022-08-03T14:26:15.956Z,101036.00
2022-08-03T14:32:10.439Z,101029.36
2022-08-03T14:36:55.678Z,101025.23
2022-08-03T14:42:03.188Z,101022.86
2022-08-03T14:47:13.815Z,101023.25
2022-08-03T14:52:21.578Z,101018.66
2022-08-03T14:57:34.531Z,101018.02
2022-08-03T15:02:45.279Z,101017.52
2022-08-03T15:07:55.281Z,101015.90
2022-08-03T15:13:04.849Z,101013.16
2022-08-03T15:18:15.726Z,101010.91
2022-08-03T15:23:23.263Z,101003.52
2022-08-03T15:28:34.548Z,100996.13
2022-08-03T15:33:56.829Z,100996.27
2022-08-03T15:39:05.300Z,100992.09
2022-08-03T15:44:19.742Z,100994.29
2022-08-03T15:49:27.164Z,100992.04
2022-08-03T15:54:37.175Z,100992.92
2022-08-03T15:59:44.612Z,100988.29
2022-08-03T16:05:04.227Z,100993.83
2022-08-03T16:10:30.992Z,100990.41
2022-08-03T16:15:41.630Z,100984.19
2022-08-03T16:20:52.515Z,100979.29
2022-08-03T16:26:00.159Z,100974.20
2022-08-03T16:31:17.279Z,100976.13
2022-08-03T16:36:24.794Z,100969.02
2022-08-03T16:42:00.541Z,100976.63
2022-08-03T16:47:09.361Z,100973.11
2022-08-03T16:52:29.984Z,100975.77
2022-08-03T16:57:58.372Z,100974.52
2022-08-03T17:03:24.120Z,100974.90
2022-08-03T17:08:43.158Z,100975.84
2022-08-03T17:14:09.885Z,100980.97
2022-08-03T17:19:25.334Z,100980.45
2022-08-03T17:24:41.584Z,100985.85
2022-08-03T17:30:01.591Z,100984.92
2022-08-03T17:35:36.746Z,100987.76
2022-08-03T17:41:11.745Z,100985.51
2022-08-03T17:46:25.368Z,100995.13
2022-08-03T17:51:50.053Z,100997.92
2022-08-03T17:57:22.552Z,101000.31
2022-08-03T18:03:10.068Z,101001.56
2022-08-03T18:08:30.102Z,101000.17
2022-08-03T18:14:09.926Z,101010.63
2022-08-03T18:20:02.858Z,101006.11
2022-08-03T18:25:00.640Z,101008.35
2022-08-03T18:30:16.423Z,101008.85
2022-08-03T18:35:25.322Z,101015.23
2022-08-03T18:40:34.572Z,101016.73
2022-08-03T18:46:30.143Z,101028.65
2022-08-03T18:52:13.104Z,101035.89
2022-08-03T18:57:46.657Z,101033.35
2022-08-03T19:03:05.235Z,101036.23
2022-08-03T19:08:33.646Z,101040.55
2022-08-03T19:13:50.889Z,101040.02
2022-08-03T19:19:22.648Z,101041.15
2022-08-03T19:24:38.848Z,101046.35
2022-08-03T19:29:58.489Z,101043.34
2022-08-03T19:35:19.062Z,101042.94
2022-08-03T19:41:07.390Z,101044.78
2022-08-03T19:46:30.146Z,101045.80
2022-08-03T19:51:59.006Z,101048.11
2022-08-03T19:57:17.802Z,101053.06
2022-08-03T20:02:38.358Z,101051.27
2022-08-03T20:08:00.441Z,101053.18
2022-08-03T20:13:12.067Z,101051.10
2022-08-03T20:18:33.655Z,101052.35
2022-08-03T20:24:01.924Z,101050.21
2022-08-03T20:30:04.880Z,101050.77
2022-08-03T20:34:55.436Z,101043.21
2022-08-03T20:40:08.346Z,101044.48
2022-08-03T20:45:59.013Z,101044.97
2022-08-03T20:50:54.567Z,101047.28
2022-08-03T20:56:16.995Z,101053.58
2022-08-03T21:01:36.224Z,101055.88
2022-08-03T21:12:54.070Z,101058.11
2022-08-03T21:18:27.066Z,101060.80
2022-08-03T21:23:49.999Z,101061.86
2022-08-03T21:29:03.242Z,101066.16
2022-08-03T21:34:21.915Z,101068.92
2022-08-03T21:39:38.669Z,101075.80
2022-08-03T21:45:02.070Z,101074.92
2022-08-03T21:50:15.326Z,101077.55
2022-08-03T21:55:46.551Z,101077.52
2022-08-03T22:01:16.773Z,101077.16
2022-08-03T22:06:27.063Z,101079.44
2022-08-03T22:11:38.449Z,101080.63
2022-08-03T22:16:53.685Z,101083.23
2022-08-03T22:22:08.010Z,101088.88
2022-08-03T22:27:40.411Z,101084.05
2022-08-03T22:33:11.968Z,101084.90
2022-08-03T22:38:23.068Z,101089.83
2022-08-03T22:43:38.233Z,101095.54
2022-08-03T22:49:07.940Z,101089.89
2022-08-03T22:54:26.262Z,101090.55
2022-08-03T22:59:41.330Z,101095.39
2022-08-03T23:06:00.990Z,101092.23
2022-08-03T23:11:09.052Z,101095.85
2022-08-03T23:16:28.987Z,101098.39
2022-08-03T23:22:00.333Z,101098.49
2022-08-03T23:27:18.884Z,101100.70
2022-08-03T23:32:45.373Z,101101.23
2022-08-03T23:38:21.984Z,101104.00
2022-08-03T23:43:52.098Z,101100.16
2022-08-03T23:49:22.797Z,101100.64
2022-08-03T23:55:02.343Z,101102.21
